Observation data for Floydada on 12/07/2018      Previous  Date       Current Mesonet Observations  Soil Data  Daily Summary Page  Observations in Plain Language
KFLS 070600Z 03009KT 01/M04 A3028 RMK A01 T00051044  RH  071%=      5-min Rain = 0
KFLS 070605Z 03009KT 00/M05 A3028 RMK A01 T00041045  RH  070%=      5-min Rain = 0
KFLS 070610Z 04009KT 00/M05 A3028 RMK A01 T00041045  RH  070%=      5-min Rain = 0
KFLS 070615Z 03010KT 00/M05 A3028 RMK A01 T00041045  RH  070%=      5-min Rain = 0
KFLS 070620Z 04009KT 00/M04 A3028 RMK A01 T00041044  RH  071%=      5-min Rain = 0
KFLS 070625Z 04010KT 00/M04 A3028 RMK A01 T00041043  RH  072%=      5-min Rain = 0
KFLS 070630Z 04009KT 00/M04 A3028 RMK A01 T00041042  RH  072%=      5-min Rain = 0
KFLS 070635Z 04008KT 00/M04 A3028 RMK A01 T00041041  RH  073%=      5-min Rain = 0
KFLS 070640Z 04009G14KT 00/M04 A3028 RMK A01 T00041041  RH  073%=      5-min Rain = 0
KFLS 070645Z 03010KT 00/M04 A3028 RMK A01 T00031041  RH  073%=      5-min Rain = 0
KFLS 070650Z 04009KT 00/M04 A3028 RMK A01 T00031041  RH  073%=      5-min Rain = 0
KFLS 070655Z 05009KT 00/M04 A3028 RMK A01 T00031041  RH  073%=      5-min Rain = 0
KFLS 070700Z 06009KT 00/M04 A3028 RMK A01 T00031041  RH  073%=      5-min Rain = 0
KFLS 070705Z 06009KT 00/M04 A3028 RMK A01 T00031042  RH  073%=      5-min Rain = 0
KFLS 070710Z 06006KT 00/M04 A303 RMK A01 T00041042  RH  073%=      5-min Rain = 0
KFLS 070715Z 05007KT 00/M04 A303 RMK A01 T00041042  RH  072%=      5-min Rain = 0
KFLS 070720Z 04007KT 00/M04 A3029 RMK A01 T00031042  RH  072%=      5-min Rain = 0
KFLS 070725Z 04006KT 00/M04 A303 RMK A01 T00031042  RH  073%=      5-min Rain = 0
KFLS 070730Z 05006KT 00/M04 A3029 RMK A01 T00031041  RH  073%=      5-min Rain = 0
KFLS 070735Z 05006KT 00/M04 A303 RMK A01 T00031042  RH  073%=      5-min Rain = 0
KFLS 070740Z 05004KT 00/M04 A303 RMK A01 T00031042  RH  073%=      5-min Rain = 0
KFLS 070745Z 05004KT 00/M04 A303 RMK A01 T00031042  RH  072%=      5-min Rain = 0
KFLS 070750Z 05004KT 00/M04 A303 RMK A01 T00041042  RH  072%=      5-min Rain = 0
KFLS 070755Z 05005KT 00/M04 A303 RMK A01 T00031043  RH  072%=      5-min Rain = 0
KFLS 070800Z 06005KT 00/M04 A303 RMK A01 T00031044  RH  072%=      5-min Rain = 0
KFLS 070805Z 05006KT 00/M05 A3029 RMK A01 T00031045  RH  071%=      5-min Rain = 0
KFLS 070810Z 05005KT 00/M05 A3029 RMK A01 T00031045  RH  071%=      5-min Rain = 0
KFLS 070815Z 06004KT 00/M05 A3029 RMK A01 T00031045  RH  071%=      5-min Rain = 0
KFLS 070820Z 07003KT 00/M04 A3029 RMK A01 T00031044  RH  071%=      5-min Rain = 0
KFLS 070825Z 07003KT 00/M05 A303 RMK A01 T00031045  RH  071%=      5-min Rain = 0
KFLS 070830Z 08003KT 00/M05 A303 RMK A01 T00031045  RH  071%=      5-min Rain = 0
KFLS 070835Z 09003KT 00/M05 A3031 RMK A01 T00031045  RH  071%=      5-min Rain = 0
KFLS 070840Z 07003KT 00/M04 A303 RMK A01 T00031044  RH  071%=      5-min Rain = 0
KFLS 070845Z 06004KT 00/M05 A303 RMK A01 T00031045  RH  071%=      5-min Rain = 0
KFLS 070850Z 03004KT 00/M04 A303 RMK A01 T00031044  RH  071%=      5-min Rain = 0
KFLS 070855Z 03003KT 00/M04 A303 RMK A01 T00031044  RH  072%=      5-min Rain = 0
KFLS 070900Z 01003KT 00/M04 A303 RMK A01 T00031043  RH  072%=      5-min Rain = 0
KFLS 070905Z 00004KT 00/M04 A303 RMK A01 T00031043  RH  072%=      5-min Rain = 0
KFLS 070910Z 01003KT 00/M04 A303 RMK A01 T00031043  RH  072%=      5-min Rain = 0
KFLS 070915Z 36004KT 00/M04 A303 RMK A01 T00031044  RH  071%=      5-min Rain = 0
KFLS 070920Z 36004KT 00/M04 A303 RMK A01 T00031044  RH  071%=      5-min Rain = 0
KFLS 070925Z 35005KT 00/M05 A303 RMK A01 T00031045  RH  071%=      5-min Rain = 0
KFLS 070930Z 34004KT 00/M05 A303 RMK A01 T00031045  RH  071%=      5-min Rain = 0
KFLS 070935Z 34005KT 00/M05 A303 RMK A01 T00031045  RH  071%=      5-min Rain = 0
KFLS 070940Z 35004KT 00/M05 A303 RMK A01 T00031045  RH  071%=      5-min Rain = 0
KFLS 070945Z 00005KT 00/M05 A3029 RMK A01 T00031045  RH  071%=      5-min Rain = 0
KFLS 070950Z 01005KT 00/M04 A3028 RMK A01 T00031044  RH  072%=      5-min Rain = 0
KFLS 070955Z 03006KT 00/M04 A3028 RMK A01 T00031044  RH  072%=      5-min Rain = 0
KFLS 071000Z 05007KT 00/M04 A3026 RMK A01 T00021043  RH  072%=      5-min Rain = 0
KFLS 071005Z 05006KT 00/M04 A3026 RMK A01 T00021042  RH  073%=      5-min Rain = 0
KFLS 071010Z 03006KT 00/M04 A3026 RMK A01 T00021042  RH  073%=      5-min Rain = 0
KFLS 071015Z 02005KT 00/M04 A3027 RMK A01 T00021042  RH  073%=      5-min Rain = 0
KFLS 071020Z 02005KT 00/M04 A3027 RMK A01 T00021042  RH  073%=      5-min Rain = 0
KFLS 071025Z 03004KT 00/M04 A3027 RMK A01 T00011043  RH  073%=      5-min Rain = 0
KFLS 071030Z 05003KT 00/M04 A3028 RMK A01 T00011042  RH  074%=      5-min Rain = 0
KFLS 071035Z 07004KT 00/M04 A3027 RMK A01 T00011041  RH  074%=      5-min Rain = 0
KFLS 071040Z 07004KT 00/M04 A3027 RMK A01 T00011040  RH  075%=      5-min Rain = 0
KFLS 071045Z 06006KT 00/M04 A3026 RMK A01 T00011039  RH  075%=      5-min Rain = 0
KFLS 071050Z 07007KT 00/M04 A3026 RMK A01 T00011040  RH  075%=      5-min Rain = 0
KFLS 071055Z 07006KT 00/M04 A3026 RMK A01 T00011041  RH  074%=      5-min Rain = 0
KFLS 071100Z 06008KT 00/04 A3025 RMK A01 T00000-42  RH  074%=      5-min Rain = 0
KFLS 071105Z 06008KT 00/04 A3025 RMK A01 T00000-42  RH  074%=      5-min Rain = 0
KFLS 071110Z 06009KT 00/04 A3025 RMK A01 T00000-43  RH  074%=      5-min Rain = 0
KFLS 071115Z 04008KT 00/M04 A3025 RMK A01 T00011044  RH  073%=      5-min Rain = 0
KFLS 071120Z 04010KT 00/05 A3025 RMK A01 T00000-45  RH  072%=      5-min Rain = 0
KFLS 071125Z 04009KT 00/04 A3024 RMK A01 T00000-44  RH  073%=      5-min Rain = 0
KFLS 071130Z 03007KT 00/04 A3025 RMK A01 T00000-42  RH  074%=      5-min Rain = 0
KFLS 071135Z 04008KT M00/M04 A3026 RMK A01 T10021038  RH  078%=      5-min Rain = 0
KFLS 071140Z 03010KT M00/M04 A3026 RMK A01 T10031037  RH  079%=      5-min Rain = 0
KFLS 071145Z 03008KT M00/M04 A3026 RMK A01 T10041038  RH  079%=      5-min Rain = 0
KFLS 071150Z 03006KT M00/M04 A3027 RMK A01 T10041037  RH  079%=      5-min Rain = 0
KFLS 071155Z 03006KT M01/M04 A3027 RMK A01 T10051039  RH  078%=      5-min Rain = 0
KFLS 071200Z 04006KT M01/M04 A3027 RMK A01 T10051039  RH  078%=      5-min Rain = 0
KFLS 071205Z 04004KT M01/M04 A3028 RMK A01 T10051040  RH  078%=      5-min Rain = 0
KFLS 071210Z 04003KT M01/M04 A3028 RMK A01 T10051040  RH  078%=      5-min Rain = 0
KFLS 071215Z 05003KT M01/M04 A3029 RMK A01 T10051041  RH  078%=      5-min Rain = 0
KFLS 071220Z 04002KT M01/M04 A3029 RMK A01 T10051040  RH  078%=      5-min Rain = 0
KFLS 071225Z 06003KT M01/M04 A3029 RMK A01 T10051040  RH  079%=      5-min Rain = 0
KFLS 071230Z 07004KT M01/M04 A3028 RMK A01 T10051040  RH  079%=      5-min Rain = 0
KFLS 071235Z 06005KT M01/M04 A3028 RMK A01 T10051040  RH  078%=      5-min Rain = 0
KFLS 071240Z 06004KT M00/M04 A3028 RMK A01 T10041039  RH  078%=      5-min Rain = 0
KFLS 071245Z 07005KT M00/M04 A3028 RMK A01 T10031039  RH  078%=      5-min Rain = 0
KFLS 071250Z 08005KT M00/M04 A3028 RMK A01 T10031039  RH  078%=      5-min Rain = 0
KFLS 071255Z 08005KT M00/M04 A3028 RMK A01 T10031039  RH  078%=      5-min Rain = 0
KFLS 071300Z 08005KT M00/M04 A3028 RMK A01 T10031038  RH  078%=      5-min Rain = 0
KFLS 071305Z 08005KT M00/M04 A3028 RMK A01 T10031038  RH  078%=      5-min Rain = 0
KFLS 071310Z 09006KT M00/M04 A3028 RMK A01 T10021038  RH  078%=      5-min Rain = 0
KFLS 071315Z 07007KT M00/M04 A3028 RMK A01 T10021038  RH  078%=      5-min Rain = 0
KFLS 071320Z 07007KT M00/M04 A3028 RMK A01 T10021039  RH  077%=      5-min Rain = 0
KFLS 071325Z 07007KT M00/M04 A3028 RMK A01 T10031040  RH  077%=      5-min Rain = 0
KFLS 071330Z 07007KT M00/M04 A3028 RMK A01 T10031039  RH  077%=      5-min Rain = 0
KFLS 071335Z 07007KT M00/M04 A3028 RMK A01 T10031040  RH  077%=      5-min Rain = 0
KFLS 071340Z 06008KT M00/M04 A3028 RMK A01 T10031039  RH  077%=      5-min Rain = 0
KFLS 071345Z 06008KT M00/M04 A3028 RMK A01 T10031039  RH  077%=      5-min Rain = 0
KFLS 071350Z 06008KT M00/M04 A3028 RMK A01 T10031040  RH  077%=      5-min Rain = 0
KFLS 071355Z 08006KT M00/M04 A303 RMK A01 T10031039  RH  078%=      5-min Rain = 0
KFLS 071400Z 08006KT M00/M04 A3029 RMK A01 T10031038  RH  078%=      5-min Rain = 0
KFLS 071405Z 07006KT M00/M04 A303 RMK A01 T10031037  RH  079%=      5-min Rain = 0
KFLS 071410Z 05006KT M00/M03 A303 RMK A01 T10041034  RH  081%=      5-min Rain = 0
KFLS 071415Z 05005KT M01/M03 A3031 RMK A01 T10051033  RH  083%=      5-min Rain = 0
KFLS 071420Z 09004KT M01/M03 A3031 RMK A01 T10051030  RH  084%=      5-min Rain = 0
KFLS 071425Z 08003KT M01/M03 A3031 RMK A01 T10051028  RH  085%=      5-min Rain = 0
KFLS 071430Z 06004KT M01/M03 A3031 RMK A01 T10051028  RH  085%=      5-min Rain = 0
KFLS 071435Z 07004KT M00/M03 A3031 RMK A01 T10041027  RH  085%=      5-min Rain = 0
KFLS 071440Z 03004KT M00/M03 A3032 RMK A01 T10041026  RH  086%=      5-min Rain = 0
KFLS 071445Z 04004KT M01/M03 A3032 RMK A01 T10051026  RH  086%=      5-min Rain = 0
KFLS 071450Z 05004KT M00/M03 A3032 RMK A01 T10041025  RH  087%=      5-min Rain = 0
KFLS 071455Z 03003KT M00/M03 A3032 RMK A01 T10041026  RH  086%=      5-min Rain = 0
KFLS 071500Z 03004KT M00/M02 A3032 RMK A01 T10021024  RH  086%=      5-min Rain = 0
KFLS 071505Z 01005KT M00/M02 A3033 RMK A01 T10021024  RH  087%=      5-min Rain = 0
KFLS 071510Z 01006KT M00/M02 A3033 RMK A01 T10031024  RH  087%=      5-min Rain = 0
KFLS 071515Z 01006KT M00/M02 A3033 RMK A01 T10041024  RH  087%=      5-min Rain = 0
KFLS 071520Z 02006KT M00/M02 A3033 RMK A01 T10041023  RH  087%=      5-min Rain = 0
KFLS 071525Z 01006KT M00/M02 A3033 RMK A01 T10041024  RH  087%=      5-min Rain = 0
KFLS 071530Z 02007KT M00/M02 A3033 RMK A01 T10041024  RH  087%=      5-min Rain = 0
KFLS 071535Z 02007KT M00/M02 A3033 RMK A01 T10041023  RH  088%=      5-min Rain = 0
KFLS 071540Z 02008KT M00/M02 A3032 RMK A01 T10041021  RH  089%=      5-min Rain = 0.01
KFLS 071545Z 02008KT M00/M02 A3032 RMK A01 T10041019  RH  090%=      5-min Rain = 0
KFLS 071550Z 02006KT M00/M02 A3033 RMK A01 T10031017  RH  092%=      5-min Rain = 0.01
KFLS 071555Z 01007KT M01/M02 A3033 RMK A01 T10051018  RH  092%=      5-min Rain = 0
KFLS 071600Z 02007KT M01/M02 A3033 RMK A01 T10051018  RH  092%=      5-min Rain = 0
KFLS 071605Z 02008KT M01/M02 A3033 RMK A01 T10051018  RH  092%=      5-min Rain = 0.01
KFLS 071610Z 03007KT M01/M02 A3033 RMK A01 T10051018  RH  092%=      5-min Rain = 0
KFLS 071615Z 03006KT M00/M02 A3033 RMK A01 T10031016  RH  092%=      5-min Rain = 0
KFLS 071620Z 03006KT M00/M02 A3033 RMK A01 T10031015  RH  093%=      5-min Rain = 0
KFLS 071625Z 02007KT M00/M02 A3033 RMK A01 T10041016  RH  093%=      5-min Rain = 0
KFLS 071630Z 03005KT M00/M02 A3033 RMK A01 T10031015  RH  093%=      5-min Rain = 0
KFLS 071635Z 04007KT M00/M01 A3032 RMK A01 T10031014  RH  093%=      5-min Rain = 0.01
KFLS 071640Z 03007KT M00/M02 A3032 RMK A01 T10041015  RH  093%=      5-min Rain = 0
KFLS 071645Z 04007KT M00/M01 A3031 RMK A01 T10031014  RH  093%=      5-min Rain = 0.01
KFLS 071650Z 04007KT M00/M01 A3031 RMK A01 T10021012  RH  094%=      5-min Rain = 0
KFLS 071655Z 05007KT 00/01 A3031 RMK A01 T00-00-10  RH  094%=      5-min Rain = 0.01
KFLS 071700Z 05009KT 00/01 A303 RMK A01 T00-00-10  RH  094%=      5-min Rain = 0
KFLS 071705Z 05008KT M00/M01 A3031 RMK A01 T10021011  RH  094%=      5-min Rain = 0
KFLS 071710Z 05008KT M00/M01 A3031 RMK A01 T10021011  RH  094%=      5-min Rain = 0
KFLS 071715Z 06007KT M00/M01 A3031 RMK A01 T10021011  RH  094%=      5-min Rain = 0
KFLS 071720Z 05008KT M00/M01 A3031 RMK A01 T10031012  RH  094%=      5-min Rain = 0
KFLS 071725Z 05008KT M00/M01 A303 RMK A01 T10031012  RH  094%=      5-min Rain = 0
KFLS 071730Z 04008KT M00/M01 A303 RMK A01 T10031012  RH  094%=      5-min Rain = 0
KFLS 071735Z 05007KT M00/M01 A3031 RMK A01 T10031013  RH  094%=      5-min Rain = 0
KFLS 071740Z 04007KT M00/M01 A3031 RMK A01 T10031013  RH  094%=      5-min Rain = 0
KFLS 071745Z 05008KT M00/M01 A303 RMK A01 T10031012  RH  094%=      5-min Rain = 0.01
KFLS 071750Z 05008KT M00/M01 A303 RMK A01 T10041013  RH  095%=      5-min Rain = 0
KFLS 071755Z 05008KT M01/M01 A3029 RMK A01 T10051014  RH  095%=      5-min Rain = 0
KFLS 071800Z 06008KT M01/M01 A3029 RMK A01 T10051014  RH  095%=      5-min Rain = 0.01
KFLS 071805Z 07007KT M01/M02 A3029 RMK A01 T10071015  RH  095%=      5-min Rain = 0.02
KFLS 071810Z 06006KT M01/M02 A3029 RMK A01 T10071015  RH  095%=      5-min Rain = 0
KFLS 071815Z 06006KT M01/M02 A3028 RMK A01 T10071015  RH  095%=      5-min Rain = 0.01
KFLS 071820Z 06006KT M01/M02 A3028 RMK A01 T10091017  RH  095%=      5-min Rain = 0
KFLS 071825Z 06006KT M01/M02 A3028 RMK A01 T10091017  RH  095%=      5-min Rain = 0
KFLS 071830Z 05005KT M01/M02 A3028 RMK A01 T10091017  RH  096%=      5-min Rain = 0
KFLS 071835Z 05005KT M01/M02 A3028 RMK A01 T10091017  RH  095%=      5-min Rain = 0.01
KFLS 071840Z 04004KT M01/M02 A3029 RMK A01 T10101018  RH  095%=      5-min Rain = 0
KFLS 071845Z 03004KT M01/M02 A3029 RMK A01 T10101018  RH  095%=      5-min Rain = 0
KFLS 071850Z 04004KT M01/M02 A3029 RMK A01 T10111019  RH  095%=      5-min Rain = 0
KFLS 071855Z 05004KT M01/M02 A3028 RMK A01 T10101018  RH  095%=      5-min Rain = 0
KFLS 071900Z 05004KT M01/M02 A3028 RMK A01 T10101018  RH  095%=      5-min Rain = 0
KFLS 071905Z 05005KT M01/M02 A3027 RMK A01 T10101019  RH  095%=      5-min Rain = 0
KFLS 071910Z 05004KT M01/M02 A3027 RMK A01 T10081016  RH  095%=      5-min Rain = 0
KFLS 071915Z 05004KT M01/M02 A3027 RMK A01 T10091018  RH  095%=      5-min Rain = 0
KFLS 071920Z 05004KT M01/M02 A3027 RMK A01 T10101018  RH  095%=      5-min Rain = 0
KFLS 071925Z 06005KT M01/M02 A3026 RMK A01 T10101019  RH  095%=      5-min Rain = 0
KFLS 071930Z 05005KT M01/M02 A3026 RMK A01 T10101018  RH  095%=      5-min Rain = 0
KFLS 071935Z 05004KT M01/M02 A3026 RMK A01 T10091019  RH  095%=      5-min Rain = 0
KFLS 071940Z 04005KT M01/M02 A3026 RMK A01 T10091018  RH  094%=      5-min Rain = 0
KFLS 071945Z 04004KT M01/M02 A3026 RMK A01 T10081017  RH  094%=      5-min Rain = 0
KFLS 071950Z 04004KT M01/M02 A3026 RMK A01 T10091019  RH  094%=      5-min Rain = 0
KFLS 071955Z 04004KT M01/M02 A3026 RMK A01 T10081019  RH  094%=      5-min Rain = 0
KFLS 072000Z 04004KT M01/M02 A3026 RMK A01 T10071018  RH  094%=      5-min Rain = 0
KFLS 072005Z 03004KT M01/M02 A3026 RMK A01 T10071017  RH  094%=      5-min Rain = 0
KFLS 072010Z 04004KT M01/M02 A3025 RMK A01 T10071018  RH  094%=      5-min Rain = 0
KFLS 072015Z 04004KT M01/M02 A3025 RMK A01 T10071018  RH  094%=      5-min Rain = 0
KFLS 072020Z 03004KT M01/M02 A3025 RMK A01 T10061017  RH  094%=      5-min Rain = 0
KFLS 072025Z 02004KT M01/M02 A3026 RMK A01 T10061017  RH  094%=      5-min Rain = 0
KFLS 072030Z 01004KT M01/M02 A3026 RMK A01 T10061017  RH  094%=      5-min Rain = 0
KFLS 072035Z 01003KT M01/M02 A3026 RMK A01 T10061016  RH  094%=      5-min Rain = 0
KFLS 072040Z 01004KT M01/M02 A3026 RMK A01 T10051016  RH  094%=      5-min Rain = 0
KFLS 072045Z 02004KT M01/M02 A3025 RMK A01 T10051016  RH  094%=      5-min Rain = 0
KFLS 072050Z 02004KT M01/M02 A3025 RMK A01 T10051016  RH  094%=      5-min Rain = 0
KFLS 072055Z 01004KT M01/M02 A3025 RMK A01 T10051016  RH  093%=      5-min Rain = 0
KFLS 072100Z 02005KT M01/M02 A3024 RMK A01 T10051016  RH  093%=      5-min Rain = 0
KFLS 072105Z 02004KT M01/M02 A3023 RMK A01 T10051015  RH  094%=      5-min Rain = 0
KFLS 072110Z 03005KT M00/M02 A3022 RMK A01 T10041015  RH  094%=      5-min Rain = 0
KFLS 072115Z 02004KT M00/M01 A3023 RMK A01 T10041014  RH  094%=      5-min Rain = 0
KFLS 072120Z 01004KT M00/M01 A3023 RMK A01 T10041013  RH  094%=      5-min Rain = 0
KFLS 072125Z 01005KT M00/M01 A3023 RMK A01 T10031013  RH  094%=      5-min Rain = 0
KFLS 072130Z 00004KT M00/M01 A3024 RMK A01 T10031013  RH  094%=      5-min Rain = 0
KFLS 072135Z 01004KT M00/M01 A3023 RMK A01 T10031012  RH  094%=      5-min Rain = 0
KFLS 072140Z 02004KT M00/M01 A3023 RMK A01 T10021012  RH  094%=      5-min Rain = 0
KFLS 072145Z 00004KT M00/M01 A3024 RMK A01 T10011011  RH  094%=      5-min Rain = 0
KFLS 072150Z 02004KT M00/M01 A3024 RMK A01 T10021012  RH  094%=      5-min Rain = 0
KFLS 072155Z 00004KT M00/M01 A3025 RMK A01 T10011011  RH  094%=      5-min Rain = 0
KFLS 072200Z 01004KT M00/M01 A3025 RMK A01 T10011011  RH  094%=      5-min Rain = 0
KFLS 072205Z 02004KT 00/01 A3024 RMK A01 T00-00-10  RH  094%=      5-min Rain = 0
KFLS 072210Z 02004KT 00/01 A3025 RMK A01 T00-00-10  RH  094%=      5-min Rain = 0
KFLS 072215Z 01004KT M00/M01 A3025 RMK A01 T10011010  RH  094%=      5-min Rain = 0
KFLS 072220Z 02004KT M00/M01 A3024 RMK A01 T10011010  RH  094%=      5-min Rain = 0
KFLS 072225Z 02004KT M00/M01 A3024 RMK A01 T10011011  RH  094%=      5-min Rain = 0
KFLS 072230Z 03005KT M00/M01 A3024 RMK A01 T10021011  RH  094%=      5-min Rain = 0
KFLS 072235Z 03005KT M00/M01 A3024 RMK A01 T10011011  RH  094%=      5-min Rain = 0
KFLS 072240Z 03004KT M00/M01 A3024 RMK A01 T10011010  RH  095%=      5-min Rain = 0
KFLS 072245Z 03004KT 00/01 A3024 RMK A01 T00-000-9  RH  095%=      5-min Rain = 0
KFLS 072250Z 02004KT 00/01 A3024 RMK A01 T00-000-9  RH  095%=      5-min Rain = 0
KFLS 072255Z 03004KT 00/01 A3024 RMK A01 T00-000-9  RH  095%=      5-min Rain = 0
KFLS 072300Z 04004KT 00/01 A3024 RMK A01 T00-000-9  RH  095%=      5-min Rain = 0
KFLS 072305Z 05004KT M00/M01 A3024 RMK A01 T10011009  RH  095%=      5-min Rain = 0
KFLS 072310Z 04004KT M00/M01 A3024 RMK A01 T10011009  RH  095%=      5-min Rain = 0
KFLS 072315Z 04004KT M00/M01 A3025 RMK A01 T10011008  RH  096%=      5-min Rain = 0
KFLS 072320Z 03004KT M00/M01 A3025 RMK A01 T10011008  RH  096%=      5-min Rain = 0
KFLS 072325Z 03005KT M00/M01 A3025 RMK A01 T10011009  RH  096%=      5-min Rain = 0
KFLS 072330Z 03004KT M00/M01 A3026 RMK A01 T10021009  RH  096%=      5-min Rain = 0
KFLS 072335Z 02004KT M00/M01 A3026 RMK A01 T10011008  RH  096%=      5-min Rain = 0
KFLS 072340Z 02005KT M00/M01 A3025 RMK A01 T10021009  RH  096%=      5-min Rain = 0
KFLS 072345Z 02004KT M00/M01 A3025 RMK A01 T10021009  RH  096%=      5-min Rain = 0
KFLS 072350Z 02004KT M00/M01 A3025 RMK A01 T10021009  RH  096%=      5-min Rain = 0
KFLS 072355Z 02005KT M00/M01 A3025 RMK A01 T10021009  RH  096%=      5-min Rain = 0
KFLS 080000Z 03005KT M00/M01 A3025 RMK A01 T10031010  RH  096%=      5-min Rain = 0
KFLS 080005Z 03006KT M00/M01 A3024 RMK A01 T10031010  RH  096%=      5-min Rain = 0
KFLS 080010Z 03006KT M00/M01 A3024 RMK A01 T10031010  RH  096%=      5-min Rain = 0
KFLS 080015Z 03006KT M00/M01 A3024 RMK A01 T10031010  RH  096%=      5-min Rain = 0
KFLS 080020Z 04006KT M00/M01 A3024 RMK A01 T10031009  RH  097%=      5-min Rain = 0
KFLS 080025Z 03006KT M00/M01 A3024 RMK A01 T10031009  RH  097%=      5-min Rain = 0
KFLS 080030Z 03006KT M00/M01 A3024 RMK A01 T10031009  RH  097%=      5-min Rain = 0
KFLS 080035Z 03006KT M00/M01 A3024 RMK A01 T10031009  RH  097%=      5-min Rain = 0
KFLS 080040Z 04006KT M00/M01 A3024 RMK A01 T10031009  RH  097%=      5-min Rain = 0
KFLS 080045Z 04006KT M00/M01 A3024 RMK A01 T10031009  RH  097%=      5-min Rain = 0
KFLS 080050Z 04006KT M00/M01 A3024 RMK A01 T10031009  RH  097%=      5-min Rain = 0
KFLS 080055Z 04006KT M00/M01 A3024 RMK A01 T10031010  RH  097%=      5-min Rain = 0
KFLS 080100Z 04006KT M00/M01 A3024 RMK A01 T10031010  RH  097%=      5-min Rain = 0
KFLS 080105Z 04005KT M00/M01 A3025 RMK A01 T10031009  RH  097%=      5-min Rain = 0
KFLS 080110Z 04006KT M00/M01 A3025 RMK A01 T10031010  RH  097%=      5-min Rain = 0
KFLS 080115Z 04006KT M00/M01 A3026 RMK A01 T10031010  RH  096%=      5-min Rain = 0
KFLS 080120Z 04006KT M00/M01 A3026 RMK A01 T10031010  RH  096%=      5-min Rain = 0
KFLS 080125Z 04006KT M00/M01 A3027 RMK A01 T10031010  RH  096%=      5-min Rain = 0
KFLS 080130Z 04006KT M00/M01 A3027 RMK A01 T10041011  RH  096%=      5-min Rain = 0
KFLS 080135Z 05006KT M00/M01 A3027 RMK A01 T10041011  RH  096%=      5-min Rain = 0
KFLS 080140Z 05006KT M00/M01 A3028 RMK A01 T10041011  RH  096%=      5-min Rain = 0
KFLS 080145Z 05005KT M00/M01 A3027 RMK A01 T10041012  RH  096%=      5-min Rain = 0
KFLS 080150Z 04006KT M00/M01 A3027 RMK A01 T10041012  RH  096%=      5-min Rain = 0
KFLS 080155Z 05005KT M00/M01 A3027 RMK A01 T10041011  RH  096%=      5-min Rain = 0
KFLS 080200Z 05005KT M00/M01 A3027 RMK A01 T10041011  RH  096%=      5-min Rain = 0
KFLS 080205Z 05005KT M00/M01 A3027 RMK A01 T10041012  RH  096%=      5-min Rain = 0
KFLS 080210Z 05004KT M00/M01 A3027 RMK A01 T10031011  RH  096%=      5-min Rain = 0.01
KFLS 080215Z 05004KT M00/M01 A3027 RMK A01 T10021010  RH  096%=      5-min Rain = 0
KFLS 080220Z 04004KT M00/M01 A3027 RMK A01 T10021010  RH  096%=      5-min Rain = 0
KFLS 080225Z 04004KT M00/M01 A3028 RMK A01 T10031010  RH  096%=      5-min Rain = 0
KFLS 080230Z 04004KT M00/M01 A3028 RMK A01 T10031011  RH  096%=      5-min Rain = 0
KFLS 080235Z 04004KT M01/M01 A3028 RMK A01 T10051012  RH  096%=      5-min Rain = 0
KFLS 080240Z 04004KT M01/M01 A3029 RMK A01 T10051013  RH  096%=      5-min Rain = 0
KFLS 080245Z 04004KT M01/M01 A3028 RMK A01 T10051013  RH  095%=      5-min Rain = 0
KFLS 080250Z 04004KT M01/M01 A3028 RMK A01 T10051014  RH  095%=      5-min Rain = 0
KFLS 080255Z 06004KT M01/M01 A3028 RMK A01 T10051013  RH  095%=      5-min Rain = 0
KFLS 080300Z 06004KT M01/M01 A3028 RMK A01 T10061014  RH  095%=      5-min Rain = 0
KFLS 080305Z 05004KT M01/M01 A3029 RMK A01 T10061014  RH  095%=      5-min Rain = 0
KFLS 080310Z 05003KT M01/M01 A3029 RMK A01 T10051014  RH  095%=      5-min Rain = 0
KFLS 080315Z 05004KT M01/M01 A3029 RMK A01 T10051014  RH  095%=      5-min Rain = 0
KFLS 080320Z 04004KT M01/M01 A3028 RMK A01 T10061014  RH  095%=      5-min Rain = 0
KFLS 080325Z 04003KT M01/M01 A3028 RMK A01 T10051014  RH  095%=      5-min Rain = 0
KFLS 080330Z 03004KT M01/M01 A3028 RMK A01 T10061014  RH  095%=      5-min Rain = 0
KFLS 080335Z 03003KT M01/M01 A3028 RMK A01 T10061014  RH  096%=      5-min Rain = 0
KFLS 080340Z 04003KT M01/M01 A3028 RMK A01 T10061014  RH  095%=      5-min Rain = 0
KFLS 080345Z 04003KT M01/M01 A3028 RMK A01 T10061014  RH  095%=      5-min Rain = 0
KFLS 080350Z 04003KT M01/M02 A3028 RMK A01 T10061015  RH  095%=      5-min Rain = 0
KFLS 080355Z 04003KT M01/M02 A3028 RMK A01 T10071015  RH  095%=      5-min Rain = 0
KFLS 080400Z 04003KT M01/M02 A3028 RMK A01 T10071016  RH  095%=      5-min Rain = 0
KFLS 080405Z 04003KT M01/M02 A3027 RMK A01 T10081016  RH  095%=      5-min Rain = 0
KFLS 080410Z 04003KT M01/M02 A3028 RMK A01 T10081017  RH  095%=      5-min Rain = 0
KFLS 080415Z 04003KT M01/M02 A3027 RMK A01 T10071016  RH  095%=      5-min Rain = 0
KFLS 080420Z 04002KT M01/M02 A3028 RMK A01 T10071015  RH  095%=      5-min Rain = 0
KFLS 080425Z 04003KT M01/M02 A3028 RMK A01 T10071015  RH  095%=      5-min Rain = 0
KFLS 080430Z 04003KT M01/M02 A3028 RMK A01 T10071015  RH  095%=      5-min Rain = 0
KFLS 080435Z 04003KT M01/M02 A3028 RMK A01 T10071015  RH  096%=      5-min Rain = 0
KFLS 080440Z 03003KT M01/M01 A3028 RMK A01 T10071014  RH  096%=      5-min Rain = 0
KFLS 080445Z 04003KT M01/M02 A3027 RMK A01 T10071015  RH  096%=      5-min Rain = 0
KFLS 080450Z 04002KT M01/M01 A3028 RMK A01 T10061013  RH  096%=      5-min Rain = 0
KFLS 080455Z 04002KT M01/M01 A3027 RMK A01 T10061013  RH  096%=      5-min Rain = 0
KFLS 080500Z 04002KT M01/M01 A3027 RMK A01 T10061013  RH  096%=      5-min Rain = 0
KFLS 080505Z 04002KT M01/M01 A3028 RMK A01 T10061013  RH  096%=      5-min Rain = 0
KFLS 080510Z 04002KT M01/M01 A3028 RMK A01 T10061013  RH  096%=      5-min Rain = 0
KFLS 080515Z 04002KT M01/M01 A3028 RMK A01 T10061013  RH  096%=      5-min Rain = 0
KFLS 080520Z 04002KT M01/M01 A3028 RMK A01 T10061013  RH  096%=      5-min Rain = 0
KFLS 080525Z 04002KT M01/M01 A3028 RMK A01 T10061013  RH  096%=      5-min Rain = 0
KFLS 080530Z 03003KT M01/M01 A3028 RMK A01 T10061013  RH  096%=      5-min Rain = 0
KFLS 080535Z 03002KT M01/M01 A3028 RMK A01 T10071014  RH  097%=      5-min Rain = 0
KFLS 080540Z 03002KT M01/M01 A3028 RMK A01 T10071013  RH  097%=      5-min Rain = 0
KFLS 080545Z 02002KT M01/M01 A3028 RMK A01 T10071013  RH  097%=      5-min Rain = 0
KFLS 080550Z 02002KT M01/M01 A3028 RMK A01 T10071013  RH  097%=      5-min Rain = 0
KFLS 080555Z 02002KT M01/M01 A3028 RMK A01 T10081014  RH  097%=      5-min Rain = 0

Page generated in 0.0088 seconds.